sensor_id;sensor_type;location;lat;lon;timestamp;temperature;humidity
26270;DHT22;15937;50.612;6.656;2022-11-15T09:03:53;11.00;99.90
26270;DHT22;15937;50.612;6.656;2022-11-15T09:07:55;11.00;99.90
26270;DHT22;15937;50.612;6.656;2022-11-15T09:11:57;11.00;99.90
26270;DHT22;15937;50.612;6.656;2022-11-15T09:16:03;11.10;99.90
26270;DHT22;15937;50.612;6.656;2022-11-15T09:20:05;11.20;99.90
26270;DHT22;15937;50.612;6.656;2022-11-15T09:24:15;11.30;99.90
26270;DHT22;15937;50.612;6.656;2022-11-15T09:28:20;11.30;99.90
26270;DHT22;15937;50.612;6.656;2022-11-15T09:32:27;11.30;99.90
26270;DHT22;15937;50.612;6.656;2022-11-15T09:36:39;11.50;99.90
26270;DHT22;15937;50.612;6.656;2022-11-15T09:40:47;11.50;99.90
26270;DHT22;15937;50.612;6.656;2022-11-15T09:48:55;11.40;99.90
26270;DHT22;15937;50.612;6.656;2022-11-15T09:53:02;11.40;99.90
26270;DHT22;15937;50.612;6.656;2022-11-15T09:57:15;11.50;99.90
26270;DHT22;15937;50.612;6.656;2022-11-15T10:01:41;11.60;99.90
26270;DHT22;15937;50.612;6.656;2022-11-15T10:05:49;11.60;99.90
26270;DHT22;15937;50.612;6.656;2022-11-15T10:09:55;11.70;99.90
26270;DHT22;15937;50.612;6.656;2022-11-15T10:14:03;11.80;99.90
26270;DHT22;15937;50.612;6.656;2022-11-15T10:18:14;11.80;99.90
26270;DHT22;15937;50.612;6.656;2022-11-15T10:26:26;11.90;99.90
26270;DHT22;15937;50.612;6.656;2022-11-15T10:30:30;11.90;99.90
26270;DHT22;15937;50.612;6.656;2022-11-15T10:34:34;12.00;99.90
26270;DHT22;15937;50.612;6.656;2022-11-15T10:38:53;12.10;99.90
26270;DHT22;15937;50.612;6.656;2022-11-15T10:43:06;12.00;99.90
26270;DHT22;15937;50.612;6.656;2022-11-15T10:47:24;12.10;99.90
26270;DHT22;15937;50.612;6.656;2022-11-15T10:51:27;12.20;99.90
26270;DHT22;15937;50.612;6.656;2022-11-15T10:55:30;12.30;99.90
26270;DHT22;15937;50.612;6.656;2022-11-15T10:59:42;12.50;99.90
26270;DHT22;15937;50.612;6.656;2022-11-15T11:04:07;12.60;99.90
26270;DHT22;15937;50.612;6.656;2022-11-15T11:08:23;12.50;99.90
26270;DHT22;15937;50.612;6.656;2022-11-15T11:12:32;12.50;99.90
26270;DHT22;15937;50.612;6.656;2022-11-15T11:16:41;12.70;99.90
26270;DHT22;15937;50.612;6.656;2022-11-15T11:20:48;12.90;99.90
26270;DHT22;15937;50.612;6.656;2022-11-15T11:41:53;12.70;99.90
26270;DHT22;15937;50.612;6.656;2022-11-15T11:50:25;12.80;99.90
26270;DHT22;15937;50.612;6.656;2022-11-15T11:59:12;12.90;99.90
26270;DHT22;15937;50.612;6.656;2022-11-15T12:07:31;13.40;99.90
26270;DHT22;15937;50.612;6.656;2022-11-15T12:15:56;13.30;99.90
26270;DHT22;15937;50.612;6.656;2022-11-15T12:20:33;13.40;99.90
26270;DHT22;15937;50.612;6.656;2022-11-15T13:21:49;14.10;99.90
26270;DHT22;15937;50.612;6.656;2022-11-15T13:26:33;14.10;99.90
26270;DHT22;15937;50.612;6.656;2022-11-15T13:36:27;13.70;99.90
26270;DHT22;15937;50.612;6.656;2022-11-15T13:40:42;13.80;99.90
26270;DHT22;15937;50.612;6.656;2022-11-15T13:45:36;13.70;99.90
26270;DHT22;15937;50.612;6.656;2022-11-15T13:50:30;13.60;99.90
26270;DHT22;15937;50.612;6.656;2022-11-15T13:55:08;13.50;99.90
26270;DHT22;15937;50.612;6.656;2022-11-15T14:08:40;13.40;99.90
26270;DHT22;15937;50.612;6.656;2022-11-15T14:18:42;13.30;99.90
26270;DHT22;15937;50.612;6.656;2022-11-15T14:22:55;13.40;99.90
26270;DHT22;15937;50.612;6.656;2022-11-15T14:27:15;13.40;99.90
26270;DHT22;15937;50.612;6.656;2022-11-15T14:31:16;13.40;99.90
26270;DHT22;15937;50.612;6.656;2022-11-15T14:35:19;13.40;99.90
26270;DHT22;15937;50.612;6.656;2022-11-15T14:39:21;13.40;99.90
26270;DHT22;15937;50.612;6.656;2022-11-15T14:43:25;13.40;99.90
26270;DHT22;15937;50.612;6.656;2022-11-15T14:47:27;13.30;99.90
26270;DHT22;15937;50.612;6.656;2022-11-15T14:51:28;13.30;99.90
26270;DHT22;15937;50.612;6.656;2022-11-15T14:55:31;13.30;99.90
26270;DHT22;15937;50.612;6.656;2022-11-15T14:59:33;13.30;99.90
26270;DHT22;15937;50.612;6.656;2022-11-15T15:03:42;13.30;99.90
26270;DHT22;15937;50.612;6.656;2022-11-15T15:07:45;13.20;99.90
26270;DHT22;15937;50.612;6.656;2022-11-15T15:11:48;13.20;99.90
26270;DHT22;15937;50.612;6.656;2022-11-15T15:15:50;13.20;99.90
26270;DHT22;15937;50.612;6.656;2022-11-15T15:19:52;13.20;99.90
26270;DHT22;15937;50.612;6.656;2022-11-15T15:23:54;13.10;99.90
26270;DHT22;15937;50.612;6.656;2022-11-15T15:27:56;13.10;99.90
26270;DHT22;15937;50.612;6.656;2022-11-15T15:32:06;13.10;99.90
26270;DHT22;15937;50.612;6.656;2022-11-15T15:36:11;13.00;99.90
26270;DHT22;15937;50.612;6.656;2022-11-15T15:40:15;13.00;99.90
26270;DHT22;15937;50.612;6.656;2022-11-15T15:44:17;13.00;99.90
26270;DHT22;15937;50.612;6.656;2022-11-15T15:58:15;12.90;99.90
26270;DHT22;15937;50.612;6.656;2022-11-15T16:12:01;12.90;99.90
26270;DHT22;15937;50.612;6.656;2022-11-15T16:16:04;12.90;99.90
26270;DHT22;15937;50.612;6.656;2022-11-15T16:25:44;12.80;99.90
26270;DHT22;15937;50.612;6.656;2022-11-15T16:59:35;12.90;99.90
26270;DHT22;15937;50.612;6.656;2022-11-15T17:03:44;12.80;99.90
26270;DHT22;15937;50.612;6.656;2022-11-15T17:08:29;12.90;99.90
26270;DHT22;15937;50.612;6.656;2022-11-15T17:12:33;12.80;99.90
26270;DHT22;15937;50.612;6.656;2022-11-15T17:16:35;12.70;99.90
26270;DHT22;15937;50.612;6.656;2022-11-15T17:20:39;12.60;99.90
26270;DHT22;15937;50.612;6.656;2022-11-15T17:24:41;12.60;99.90
26270;DHT22;15937;50.612;6.656;2022-11-15T17:28:43;12.60;99.90
26270;DHT22;15937;50.612;6.656;2022-11-15T17:32:44;12.50;99.90
26270;DHT22;15937;50.612;6.656;2022-11-15T17:36:48;12.50;99.90
26270;DHT22;15937;50.612;6.656;2022-11-15T17:41:00;12.50;99.90
26270;DHT22;15937;50.612;6.656;2022-11-15T17:45:03;12.40;99.90
26270;DHT22;15937;50.612;6.656;2022-11-15T17:49:10;12.40;99.90
26270;DHT22;15937;50.612;6.656;2022-11-15T17:53:12;12.30;99.90
26270;DHT22;15937;50.612;6.656;2022-11-15T17:57:14;12.30;99.90
26270;DHT22;15937;50.612;6.656;2022-11-15T18:01:17;12.30;99.90
26270;DHT22;15937;50.612;6.656;2022-11-15T18:05:19;12.30;99.90
26270;DHT22;15937;50.612;6.656;2022-11-15T18:09:21;12.40;99.90
26270;DHT22;15937;50.612;6.656;2022-11-15T18:13:23;12.30;99.90
26270;DHT22;15937;50.612;6.656;2022-11-15T18:17:25;12.30;99.90
26270;DHT22;15937;50.612;6.656;2022-11-15T18:21:55;12.30;99.90
26270;DHT22;15937;50.612;6.656;2022-11-15T18:25:57;12.30;99.90
26270;DHT22;15937;50.612;6.656;2022-11-15T18:29:59;12.30;99.90
26270;DHT22;15937;50.612;6.656;2022-11-15T18:34:01;12.30;99.90
26270;DHT22;15937;50.612;6.656;2022-11-15T18:38:02;12.30;99.90
26270;DHT22;15937;50.612;6.656;2022-11-15T18:42:04;12.30;99.90
26270;DHT22;15937;50.612;6.656;2022-11-15T18:46:10;12.20;99.90
26270;DHT22;15937;50.612;6.656;2022-11-15T18:50:15;12.20;99.90
26270;DHT22;15937;50.612;6.656;2022-11-15T18:54:17;12.30;99.90
26270;DHT22;15937;50.612;6.656;2022-11-15T18:58:19;12.30;99.90
26270;DHT22;15937;50.612;6.656;2022-11-15T19:02:23;12.30;99.90
26270;DHT22;15937;50.612;6.656;2022-11-15T19:06:26;12.30;99.90
26270;DHT22;15937;50.612;6.656;2022-11-15T19:10:30;12.30;99.90
26270;DHT22;15937;50.612;6.656;2022-11-15T19:14:31;12.20;99.90
26270;DHT22;15937;50.612;6.656;2022-11-15T19:18:33;12.30;99.90
26270;DHT22;15937;50.612;6.656;2022-11-15T19:22:38;12.20;99.90
26270;DHT22;15937;50.612;6.656;2022-11-15T19:26:42;12.20;99.90
